createdAt,value
2018-06-20T00:00:19.145Z,85.00
2018-06-20T00:02:47.381Z,84.80
2018-06-20T00:05:15.650Z,84.80
2018-06-20T00:07:43.836Z,84.40
2018-06-20T00:10:12.101Z,84.40
2018-06-20T00:12:40.372Z,83.90
2018-06-20T00:15:08.617Z,83.50
2018-06-20T00:17:36.889Z,82.80
2018-06-20T00:20:05.129Z,82.80
2018-06-20T00:22:33.356Z,82.80
2018-06-20T00:25:01.546Z,82.90
2018-06-20T00:27:29.745Z,83.30
2018-06-20T00:29:57.917Z,83.50
2018-06-20T00:32:26.184Z,83.80
2018-06-20T00:34:54.493Z,83.70
2018-06-20T00:37:22.673Z,83.40
2018-06-20T00:39:50.949Z,83.10
2018-06-20T00:42:19.165Z,83.20
2018-06-20T00:44:47.368Z,83.30
2018-06-20T00:47:15.580Z,83.20
2018-06-20T00:49:43.876Z,83.30
2018-06-20T00:52:12.089Z,83.20
2018-06-20T00:54:40.281Z,83.30
2018-06-20T00:57:08.511Z,84.00
2018-06-20T00:59:36.701Z,84.50
2018-06-20T01:02:05.025Z,84.70
2018-06-20T01:04:33.242Z,85.00
2018-06-20T01:07:01.598Z,83.90
2018-06-20T01:09:29.852Z,84.00
2018-06-20T01:11:58.150Z,84.10
2018-06-20T01:14:26.340Z,84.40
2018-06-20T01:16:54.682Z,84.70
2018-06-20T01:19:22.901Z,84.30
2018-06-20T01:24:19.111Z,84.30
2018-06-20T01:26:47.328Z,83.90
2018-06-20T01:29:15.525Z,84.50
2018-06-20T01:31:43.739Z,84.70
2018-06-20T01:34:18.583Z,84.70
2018-06-20T01:36:46.817Z,84.90
2018-06-20T01:39:15.012Z,84.40
2018-06-20T01:41:43.252Z,84.40
2018-06-20T01:44:11.497Z,84.50
2018-06-20T01:46:39.693Z,84.00
2018-06-20T01:49:07.915Z,83.70
2018-06-20T01:51:36.124Z,84.50
2018-06-20T01:54:04.353Z,84.30
2018-06-20T01:56:32.538Z,84.10
2018-06-20T01:59:00.793Z,84.60
2018-06-20T02:01:29.002Z,85.40
2018-06-20T02:03:57.301Z,85.90
2018-06-20T02:06:25.645Z,85.90
2018-06-20T02:08:57.796Z,85.80
2018-06-20T02:11:26.697Z,85.40
2018-06-20T02:13:54.945Z,84.70
2018-06-20T02:16:23.156Z,85.20
2018-06-20T02:18:51.373Z,85.20
2018-06-20T02:21:19.624Z,84.90
2018-06-20T02:23:47.845Z,85.10
2018-06-20T02:26:16.063Z,85.60
2018-06-20T02:28:44.367Z,86.40
2018-06-20T02:31:12.559Z,86.70
2018-06-20T02:33:40.790Z,86.20
2018-06-20T02:36:14.492Z,86.10
2018-06-20T02:38:42.726Z,86.10
2018-06-20T02:41:11.030Z,85.50
2018-06-20T02:43:39.240Z,85.40
2018-06-20T02:46:07.529Z,85.30
2018-06-20T02:48:35.781Z,85.50
2018-06-20T02:51:04.063Z,86.10
2018-06-20T02:53:32.249Z,86.10
2018-06-20T02:56:00.479Z,86.10
2018-06-20T02:58:28.710Z,86.50
2018-06-20T03:00:56.962Z,87.20
2018-06-20T03:03:25.197Z,86.90
2018-06-20T03:05:53.373Z,88.20
2018-06-20T03:08:21.605Z,88.30
2018-06-20T03:10:49.802Z,88.70
2018-06-20T03:13:18.021Z,89.80
2018-06-20T03:15:46.245Z,89.60
2018-06-20T03:18:14.508Z,88.60
2018-06-20T03:20:42.737Z,88.10
2018-06-20T03:25:38.972Z,87.20
2018-06-20T03:28:07.137Z,87.60
2018-06-20T03:30:35.985Z,86.90
2018-06-20T03:33:04.213Z,86.80
2018-06-20T03:35:32.456Z,86.70
2018-06-20T03:38:00.715Z,86.40
2018-06-20T03:40:28.929Z,86.60
2018-06-20T03:42:57.193Z,86.70
2018-06-20T03:45:25.469Z,86.10
2018-06-20T03:47:53.699Z,86.60
2018-06-20T03:50:21.997Z,86.80
2018-06-20T03:52:50.479Z,87.00
2018-06-20T03:55:18.725Z,86.70
2018-06-20T03:57:46.907Z,86.80
2018-06-20T04:00:15.149Z,87.00
2018-06-20T04:02:43.963Z,86.50
2018-06-20T04:05:12.506Z,88.20
2018-06-20T04:07:41.259Z,88.40
2018-06-20T04:10:09.501Z,88.20
2018-06-20T04:12:38.045Z,88.00
2018-06-20T04:15:06.297Z,87.40
2018-06-20T04:17:34.493Z,87.50
2018-06-20T04:20:02.740Z,86.60
2018-06-20T04:22:30.997Z,87.90
2018-06-20T04:24:59.213Z,88.00
2018-06-20T04:27:27.449Z,88.40
2018-06-20T04:29:55.741Z,88.50
2018-06-20T04:32:23.964Z,88.30
2018-06-20T04:34:52.261Z,88.20
2018-06-20T04:37:20.522Z,88.30
2018-06-20T04:39:48.720Z,88.00
2018-06-20T04:42:16.937Z,88.10
2018-06-20T04:44:45.180Z,87.20
2018-06-20T04:47:13.424Z,87.20
2018-06-20T04:49:41.659Z,87.70
2018-06-20T04:52:10.441Z,87.40
2018-06-20T04:54:38.794Z,87.90
2018-06-20T04:57:07.090Z,87.70
2018-06-20T04:59:35.312Z,87.60
2018-06-20T05:02:03.554Z,87.50
2018-06-20T05:04:31.747Z,87.70
2018-06-20T05:06:59.973Z,87.60
2018-06-20T05:09:28.318Z,86.90
2018-06-20T05:11:56.550Z,85.90
2018-06-20T05:14:24.766Z,86.60
2018-06-20T05:16:52.961Z,86.60
2018-06-20T05:19:21.208Z,86.60
2018-06-20T05:21:49.400Z,86.50
2018-06-20T05:24:17.609Z,85.80
2018-06-20T05:26:45.812Z,85.40
2018-06-20T05:29:14.092Z,84.50
2018-06-20T05:31:42.356Z,83.60
2018-06-20T05:34:10.575Z,83.80
2018-06-20T05:36:38.829Z,82.90
2018-06-20T05:39:08.620Z,83.00
2018-06-20T05:41:36.946Z,81.50
2018-06-20T05:44:05.614Z,81.80
2018-06-20T05:46:33.847Z,80.60
2018-06-20T05:49:02.155Z,79.30
2018-06-20T05:51:30.352Z,77.80
2018-06-20T05:53:59.073Z,77.70
2018-06-20T05:56:27.297Z,78.50
2018-06-20T05:58:55.581Z,79.10
2018-06-20T06:01:23.805Z,77.40
2018-06-20T06:03:52.052Z,76.10
2018-06-20T06:06:21.360Z,75.80
2018-06-20T06:08:49.605Z,76.30
2018-06-20T06:11:17.854Z,75.90
2018-06-20T06:13:46.117Z,74.60
2018-06-20T06:16:14.376Z,75.40
2018-06-20T06:18:42.619Z,74.00
2018-06-20T06:21:10.840Z,73.80
2018-06-20T06:23:39.079Z,74.70
2018-06-20T06:26:07.293Z,72.20
2018-06-20T06:28:35.565Z,72.80
2018-06-20T06:31:03.768Z,72.60
2018-06-20T06:33:32.028Z,72.90
2018-06-20T06:36:00.315Z,72.90
2018-06-20T06:38:28.518Z,74.30
2018-06-20T06:40:56.775Z,72.50
2018-06-20T06:43:24.993Z,71.30
2018-06-20T06:45:53.259Z,70.60
2018-06-20T06:48:21.558Z,69.90
2018-06-20T06:50:49.803Z,69.20
2018-06-20T06:53:18.056Z,69.80
2018-06-20T06:55:46.298Z,69.60
2018-06-20T06:58:14.732Z,69.50
2018-06-20T07:00:43.040Z,70.00
2018-06-20T07:03:11.326Z,69.90
2018-06-20T07:05:39.573Z,68.50
2018-06-20T07:08:07.802Z,67.80
2018-06-20T07:10:36.133Z,67.80
2018-06-20T07:13:04.333Z,65.90
2018-06-20T07:15:32.660Z,66.90
2018-06-20T07:18:00.849Z,67.60
2018-06-20T07:20:29.109Z,67.80
2018-06-20T07:22:57.373Z,66.80
2018-06-20T07:25:25.635Z,65.90
2018-06-20T07:27:53.893Z,66.00
2018-06-20T07:30:22.124Z,65.20
2018-06-20T07:32:50.383Z,64.90
2018-06-20T07:35:18.663Z,66.40
2018-06-20T07:37:46.991Z,65.20
2018-06-20T07:40:15.247Z,64.60
2018-06-20T07:42:43.493Z,65.40
2018-06-20T07:45:11.813Z,66.60
2018-06-20T07:47:40.046Z,66.00
2018-06-20T07:50:08.341Z,65.60
2018-06-20T07:52:36.580Z,65.10
2018-06-20T07:55:04.888Z,65.90
2018-06-20T07:57:33.185Z,63.70
2018-06-20T08:00:07.082Z,63.80
2018-06-20T08:02:52.187Z,63.80
2018-06-20T08:05:25.785Z,62.10
2018-06-20T08:07:59.518Z,62.40
2018-06-20T08:10:33.264Z,63.00
2018-06-20T08:13:07.099Z,62.50
2018-06-20T08:15:40.864Z,63.10
2018-06-20T08:18:14.742Z,63.20
2018-06-20T08:20:42.990Z,63.70
2018-06-20T08:23:11.205Z,63.00
2018-06-20T08:25:39.618Z,64.30
2018-06-20T08:30:35.961Z,63.50
2018-06-20T08:33:04.200Z,62.60
2018-06-20T08:35:33.473Z,60.50
2018-06-20T08:38:01.716Z,60.80
2018-06-20T08:40:29.950Z,62.90
2018-06-20T08:42:58.239Z,63.20
2018-06-20T08:45:26.518Z,60.50
2018-06-20T08:47:54.735Z,60.90
2018-06-20T08:50:23.000Z,61.00
2018-06-20T08:55:19.237Z,60.80
2018-06-20T08:57:47.512Z,61.00
2018-06-20T09:00:20.312Z,60.60
2018-06-20T09:02:48.580Z,60.00
2018-06-20T09:05:22.373Z,60.70
2018-06-20T09:07:56.152Z,61.80
2018-06-20T09:10:29.777Z,61.10
2018-06-20T09:13:03.472Z,62.60
2018-06-20T09:15:37.322Z,61.20
2018-06-20T09:18:11.137Z,62.00
2018-06-20T09:20:39.378Z,61.60
2018-06-20T09:23:07.648Z,61.30
2018-06-20T09:25:36.143Z,58.90
2018-06-20T09:28:04.453Z,58.20
2018-06-20T09:30:32.717Z,61.30
2018-06-20T09:33:00.977Z,62.80
2018-06-20T09:35:29.644Z,62.60
2018-06-20T09:37:57.910Z,61.20
2018-06-20T09:40:26.224Z,60.80
2018-06-20T09:42:54.557Z,62.00
2018-06-20T09:45:22.806Z,61.40
2018-06-20T09:47:51.557Z,59.50
2018-06-20T09:50:25.244Z,59.70
2018-06-20T09:52:53.517Z,60.60
2018-06-20T09:55:21.102Z,59.40
2018-06-20T09:57:49.567Z,59.10
2018-06-20T10:00:23.392Z,58.20
2018-06-20T10:02:57.336Z,59.60
2018-06-20T10:05:31.069Z,60.20
2018-06-20T10:08:04.916Z,59.80
2018-06-20T10:10:38.793Z,58.10
2018-06-20T10:13:12.193Z,55.90
2018-06-20T10:15:40.408Z,57.00
2018-06-20T10:18:08.653Z,58.40
2018-06-20T10:20:36.853Z,58.20
2018-06-20T10:23:05.138Z,59.20
2018-06-20T10:25:33.322Z,59.60
2018-06-20T10:28:01.627Z,59.50
2018-06-20T10:30:29.867Z,60.10
2018-06-20T10:32:58.098Z,60.40
2018-06-20T10:35:26.342Z,59.80
2018-06-20T10:37:54.568Z,58.40
2018-06-20T10:40:22.797Z,57.90
2018-06-20T10:42:50.997Z,59.20
2018-06-20T10:45:24.616Z,58.40
2018-06-20T10:47:52.804Z,58.60
2018-06-20T10:50:21.033Z,61.00
2018-06-20T10:52:49.364Z,57.80
2018-06-20T10:55:18.292Z,60.00
2018-06-20T10:57:51.913Z,57.50
2018-06-20T11:00:26.253Z,58.60
2018-06-20T11:02:59.833Z,59.10
2018-06-20T11:05:33.498Z,58.40
2018-06-20T11:08:07.160Z,58.00
2018-06-20T11:10:40.958Z,55.40
2018-06-20T11:13:11.582Z,58.70
2018-06-20T11:15:39.903Z,57.00
2018-06-20T11:18:08.212Z,57.70
2018-06-20T11:20:41.774Z,56.20
2018-06-20T11:23:10.112Z,54.80
2018-06-20T11:25:38.390Z,53.90
2018-06-20T11:28:10.633Z,56.50
2018-06-20T11:30:39.342Z,55.80
2018-06-20T11:33:07.598Z,57.00
2018-06-20T11:35:36.036Z,57.90
2018-06-20T11:38:04.410Z,58.90
2018-06-20T11:40:32.833Z,57.60
2018-06-20T11:43:01.592Z,56.80
2018-06-20T11:45:35.394Z,55.70
2018-06-20T11:48:03.721Z,55.20
2018-06-20T11:50:31.924Z,57.30
2018-06-20T11:53:04.362Z,58.20
2018-06-20T11:55:37.725Z,58.00
2018-06-20T11:58:12.068Z,57.50
2018-06-20T12:00:45.898Z,57.30
2018-06-20T12:03:19.810Z,57.00
2018-06-20T12:05:53.862Z,56.60
2018-06-20T12:08:27.668Z,57.50
2018-06-20T12:11:01.313Z,56.30
2018-06-20T12:13:35.195Z,55.00
2018-06-20T12:16:09.052Z,54.00
2018-06-20T12:18:42.824Z,56.20
2018-06-20T12:21:16.400Z,54.30
2018-06-20T12:23:50.276Z,56.20
2018-06-20T12:26:23.942Z,55.50
2018-06-20T12:28:57.647Z,55.50
2018-06-20T12:31:31.368Z,54.20
2018-06-20T12:34:05.042Z,55.30
2018-06-20T12:36:38.678Z,56.80
2018-06-20T12:39:07.065Z,56.00
2018-06-20T12:41:40.874Z,55.50
2018-06-20T12:44:14.551Z,54.40
2018-06-20T12:46:46.925Z,55.20
2018-06-20T12:49:18.425Z,57.10
2018-06-20T12:51:47.517Z,55.20
2018-06-20T12:54:15.775Z,55.30
2018-06-20T12:56:44.052Z,56.40
2018-06-20T12:59:13.338Z,54.90
2018-06-20T13:01:41.590Z,56.30
2018-06-20T13:04:09.905Z,56.50
2018-06-20T13:06:38.173Z,56.70
2018-06-20T13:09:09.713Z,55.80
2018-06-20T13:11:38.006Z,56.50
2018-06-20T13:14:06.336Z,55.50
2018-06-20T13:16:34.575Z,54.00
2018-06-20T13:19:02.875Z,55.90
2018-06-20T13:21:31.109Z,55.10
2018-06-20T13:23:59.357Z,55.40
2018-06-20T13:26:27.641Z,55.40
2018-06-20T13:28:55.893Z,56.00
2018-06-20T13:31:29.661Z,53.70
2018-06-20T13:34:03.400Z,55.30
2018-06-20T13:36:37.140Z,53.90
2018-06-20T13:39:12.834Z,54.60
2018-06-20T13:41:47.036Z,54.30
2018-06-20T13:44:20.769Z,54.50
2018-06-20T13:46:54.489Z,55.60
2018-06-20T13:49:22.785Z,56.00
2018-06-20T13:51:51.060Z,55.60
2018-06-20T13:54:19.253Z,55.70
2018-06-20T13:56:47.495Z,53.80
2018-06-20T13:59:15.778Z,55.80
2018-06-20T14:01:44.045Z,53.40
2018-06-20T14:04:12.304Z,54.90
2018-06-20T14:06:41.041Z,55.00
2018-06-20T14:09:10.226Z,55.00
2018-06-20T14:11:38.601Z,56.50
2018-06-20T14:14:06.884Z,56.50
2018-06-20T14:16:35.073Z,56.20
2018-06-20T14:19:03.360Z,57.40
2018-06-20T14:21:36.988Z,58.20
2018-06-20T14:24:06.909Z,57.70
2018-06-20T14:26:35.677Z,58.80
2018-06-20T14:29:03.913Z,59.10
2018-06-20T14:31:37.664Z,57.90
2018-06-20T14:34:11.281Z,58.40
2018-06-20T14:39:18.530Z,56.90
2018-06-20T14:41:52.197Z,56.70
2018-06-20T14:44:20.432Z,55.30
2018-06-20T14:46:48.729Z,57.60
2018-06-20T14:49:17.013Z,57.90
2018-06-20T14:51:45.245Z,57.30
2018-06-20T14:54:13.465Z,57.00
2018-06-20T14:56:41.731Z,58.20
2018-06-20T14:59:09.934Z,57.90
2018-06-20T15:01:38.200Z,57.60
2018-06-20T15:04:06.470Z,56.10
2018-06-20T15:06:34.666Z,56.30
2018-06-20T15:09:03.200Z,54.10
2018-06-20T15:11:31.401Z,55.40
2018-06-20T15:13:59.690Z,56.90
2018-06-20T15:16:33.499Z,57.50
2018-06-20T15:19:01.750Z,55.90
2018-06-20T15:21:29.969Z,57.30
2018-06-20T15:23:58.211Z,57.50
2018-06-20T15:26:31.901Z,58.10
2018-06-20T15:29:05.473Z,58.50
2018-06-20T15:31:39.229Z,58.80
2018-06-20T15:34:12.847Z,57.10
2018-06-20T15:36:46.792Z,58.00
2018-06-20T15:39:15.031Z,59.80
2018-06-20T15:41:43.264Z,60.10
2018-06-20T15:44:11.493Z,59.30
2018-06-20T15:46:39.784Z,59.50
2018-06-20T15:49:08.013Z,59.60
2018-06-20T15:51:36.276Z,60.80
2018-06-20T15:54:04.529Z,60.80
2018-06-20T15:56:32.764Z,63.00
2018-06-20T15:59:01.066Z,61.30
2018-06-20T16:01:29.273Z,60.50
2018-06-20T16:03:57.529Z,61.10
2018-06-20T16:06:25.761Z,61.10
2018-06-20T16:08:59.368Z,61.40
2018-06-20T16:11:27.640Z,61.70
2018-06-20T16:13:55.913Z,61.00
2018-06-20T16:16:24.245Z,62.00
2018-06-20T16:18:58.089Z,60.30
2018-06-20T16:21:31.711Z,61.50
2018-06-20T16:24:05.415Z,61.80
2018-06-20T16:26:39.126Z,63.10
2018-06-20T16:29:12.721Z,62.40
2018-06-20T16:31:41.336Z,63.40
2018-06-20T16:34:09.639Z,63.00
2018-06-20T16:36:37.901Z,65.40
2018-06-20T16:39:06.978Z,62.70
2018-06-20T16:41:35.206Z,64.30
2018-06-20T16:44:03.673Z,64.30
2018-06-20T16:46:31.885Z,63.40
2018-06-20T16:49:00.252Z,63.60
2018-06-20T16:51:28.517Z,63.20
2018-06-20T16:53:56.711Z,63.30
2018-06-20T16:56:24.965Z,62.90
2018-06-20T16:58:54.160Z,63.30
2018-06-20T17:01:27.897Z,64.00
2018-06-20T17:03:56.623Z,63.80
2018-06-20T17:06:25.478Z,63.30
2018-06-20T17:08:54.376Z,63.60
2018-06-20T17:11:23.717Z,63.20
2018-06-20T17:13:57.822Z,63.40
2018-06-20T17:16:32.094Z,64.10
2018-06-20T17:20:04.807Z,64.00
2018-06-20T17:22:39.027Z,64.00
2018-06-20T17:25:13.204Z,64.70
2018-06-20T17:27:42.129Z,64.00
2018-06-20T17:30:10.809Z,63.20
2018-06-20T17:32:39.064Z,63.40
2018-06-20T17:35:07.253Z,64.20
2018-06-20T17:37:35.489Z,64.20
2018-06-20T17:40:03.766Z,64.10
2018-06-20T17:42:32.005Z,63.90
2018-06-20T17:45:00.240Z,64.60
2018-06-20T17:47:28.454Z,63.70
2018-06-20T17:49:56.662Z,63.80
2018-06-20T17:52:24.922Z,63.70
2018-06-20T17:54:53.141Z,64.40
2018-06-20T17:57:21.341Z,64.60
2018-06-20T17:59:49.569Z,64.20
2018-06-20T18:02:17.790Z,65.10
2018-06-20T18:04:51.497Z,65.10
2018-06-20T18:07:25.311Z,64.90
2018-06-20T18:09:58.977Z,66.30
2018-06-20T18:12:37.632Z,66.90
2018-06-20T18:15:12.216Z,66.70
2018-06-20T18:17:40.951Z,66.80
2018-06-20T18:20:09.271Z,67.60
2018-06-20T18:22:37.450Z,67.30
2018-06-20T18:25:05.832Z,68.00
2018-06-20T18:27:34.089Z,68.40
2018-06-20T18:30:02.367Z,67.50
2018-06-20T18:32:30.582Z,67.20
2018-06-20T18:34:58.845Z,68.10
2018-06-20T18:37:27.121Z,68.10
2018-06-20T18:40:00.721Z,68.10
2018-06-20T18:42:29.206Z,68.20
2018-06-20T18:44:57.493Z,68.20
2018-06-20T18:47:31.182Z,68.50
2018-06-20T18:49:59.834Z,69.00
2018-06-20T18:52:28.100Z,70.00
2018-06-20T18:54:56.507Z,69.40
2018-06-20T18:58:32.014Z,69.70
2018-06-20T19:01:05.725Z,69.70
2018-06-20T19:03:39.558Z,70.10
2018-06-20T19:06:13.278Z,70.70
2018-06-20T19:08:46.955Z,70.60
2018-06-20T19:11:15.160Z,70.70
2018-06-20T19:13:43.417Z,70.60
2018-06-20T19:16:11.759Z,71.00
2018-06-20T19:18:40.150Z,70.80
2018-06-20T19:21:08.526Z,70.70
2018-06-20T19:23:36.769Z,71.10
2018-06-20T19:26:05.090Z,70.90
2018-06-20T19:28:33.292Z,70.90
2018-06-20T19:31:01.583Z,70.80
2018-06-20T19:33:29.862Z,70.40
2018-06-20T19:35:58.170Z,70.30
2018-06-20T19:38:26.385Z,70.70
2018-06-20T19:40:54.693Z,71.00
2018-06-20T19:48:18.948Z,70.30
2018-06-20T19:50:47.217Z,70.20
2018-06-20T19:53:15.417Z,70.60
2018-06-20T19:55:43.697Z,70.10
2018-06-20T19:58:11.925Z,70.40
2018-06-20T20:00:40.252Z,70.70
2018-06-20T20:03:08.560Z,70.60
2018-06-20T20:05:37.008Z,70.80
2018-06-20T20:08:05.224Z,71.00
2018-06-20T20:10:33.453Z,72.20
2018-06-20T20:13:01.742Z,72.20
2018-06-20T20:15:30.011Z,72.30
2018-06-20T20:17:58.225Z,72.30
2018-06-20T20:20:27.021Z,72.70
2018-06-20T20:22:55.265Z,72.40
2018-06-20T20:25:24.325Z,72.80
2018-06-20T20:27:52.825Z,72.50
2018-06-20T20:30:22.077Z,72.50
2018-06-20T20:32:50.496Z,72.50
2018-06-20T20:35:18.860Z,72.70
2018-06-20T20:37:47.145Z,73.00
2018-06-20T20:40:16.116Z,73.60
2018-06-20T20:42:44.302Z,74.20
2018-06-20T20:45:13.900Z,74.40
2018-06-20T20:47:42.541Z,74.80
2018-06-20T20:50:10.822Z,74.90
2018-06-20T20:52:39.420Z,75.10
2018-06-20T20:55:07.985Z,75.50
2018-06-20T20:57:36.197Z,75.80
2018-06-20T21:00:04.903Z,76.40
2018-06-20T21:02:33.093Z,76.60
2018-06-20T21:05:01.321Z,76.70
2018-06-20T21:07:29.542Z,77.10
2018-06-20T21:09:57.832Z,77.90
2018-06-20T21:12:26.066Z,78.10
2018-06-20T21:14:54.449Z,78.40
2018-06-20T21:17:22.918Z,78.60
2018-06-20T21:19:51.174Z,78.10
2018-06-20T21:22:20.116Z,78.00
2018-06-20T21:24:48.694Z,77.80
2018-06-20T21:27:17.337Z,77.90
2018-06-20T21:29:45.805Z,77.80
2018-06-20T21:32:14.054Z,77.60
2018-06-20T21:34:42.304Z,78.40
2018-06-20T21:37:10.538Z,78.90
2018-06-20T21:39:43.856Z,79.30
2018-06-20T21:42:17.279Z,79.50
2018-06-20T21:44:45.565Z,79.80
2018-06-20T21:47:16.426Z,79.50
2018-06-20T21:49:48.163Z,79.60
2018-06-20T21:52:17.134Z,79.10
2018-06-20T21:54:52.447Z,79.30
2018-06-20T21:57:20.920Z,79.50
2018-06-20T21:59:49.210Z,80.00
2018-06-20T22:02:17.469Z,80.10
2018-06-20T22:04:45.721Z,79.90
2018-06-20T22:07:13.991Z,80.00
2018-06-20T22:09:42.225Z,79.90
2018-06-20T22:12:10.474Z,80.30
2018-06-20T22:14:38.711Z,80.40
2018-06-20T22:17:07.017Z,80.70
2018-06-20T22:19:35.224Z,80.70
2018-06-20T22:22:03.503Z,80.40
2018-06-20T22:24:31.734Z,80.30
2018-06-20T22:27:00.011Z,80.90
2018-06-20T22:29:28.242Z,81.00
2018-06-20T22:31:56.623Z,81.10
2018-06-20T22:34:24.859Z,80.90
2018-06-20T22:36:53.205Z,81.40
2018-06-20T22:39:21.443Z,81.20
2018-06-20T22:41:49.711Z,81.20
2018-06-20T22:44:17.954Z,81.60
2018-06-20T22:46:46.205Z,81.90
2018-06-20T22:49:14.422Z,81.90
2018-06-20T22:51:42.695Z,82.00
2018-06-20T22:54:11.714Z,81.80
2018-06-20T22:56:40.018Z,81.70
2018-06-20T22:59:08.246Z,81.70
2018-06-20T23:01:36.519Z,82.00
2018-06-20T23:04:04.774Z,81.90
2018-06-20T23:06:33.007Z,82.10
2018-06-20T23:09:01.233Z,81.70
2018-06-20T23:11:33.890Z,81.70
2018-06-20T23:14:02.099Z,82.10
2018-06-20T23:16:30.375Z,81.90
2018-06-20T23:18:58.576Z,82.20
2018-06-20T23:21:26.833Z,82.50
2018-06-20T23:23:55.050Z,82.30
2018-06-20T23:26:23.546Z,82.20
2018-06-20T23:28:51.757Z,81.90
2018-06-20T23:31:19.977Z,82.30
2018-06-20T23:33:48.177Z,82.40
2018-06-20T23:36:16.394Z,81.90
2018-06-20T23:38:44.593Z,81.80
2018-06-20T23:41:13.148Z,81.60
2018-06-20T23:43:41.815Z,81.70
2018-06-20T23:48:38.045Z,82.10
2018-06-20T23:51:06.441Z,82.10
2018-06-20T23:53:34.671Z,82.90
2018-06-20T23:56:02.881Z,82.60
2018-06-20T23:58:31.140Z,83.00
